Atkins, VA (24311)

2:40 PM EST on December 09, 2016 (GMT -0500)
Snider Branch Farm | | Change Station

Elev 2316 ft 36.86 °N, 81.47 °W | Updated 16 seconds ago

Mostly Cloudy
Mostly Cloudy
27.6 °F
Feels Like 23 °F
N
4.0
Wind Variable Wind from NNW

Today
High -- | Low -- °F
--% Chance of Precip.
Yesterday
High -- | Low -- °F
Precip. -- in
Pressure 30.37 in
Visibility 10.0 miles
Clouds Overcast 2400 ft
Windchill 23 °F
Dew Point 13 °F
Humidity 55%
Rainfall 0.00 in
Snow Depth Not available.
7:27 AM 5:09 PM
Waxing Gibbous, 76% visible
METAR KMKJ 091935Z AUTO 30013G18KT 10SM OVC024 M04/M11 A3037 RMK AO2 T10381108
Pressure 30.37 in
Visibility 10.0 miles
Clouds Overcast 2400 ft
Windchill 23 °F
Dew Point 13 °F
Humidity 55%
Rainfall 0.00 in
Snow Depth Not available.
7:27 AM 5:09 PM
Waxing Gibbous, 76% visible
METAR KMKJ 091935Z AUTO 30013G18KT 10SM OVC024 M04/M11 A3037 RMK AO2 T10381108

10-Day Weather Forecast

Almanac

Astronomy

Dec. 09, 2016 Rise Set
Actual Time
Civil Twilight
Nautical Twilight
Astronomical Twilight
Moon
Length of Visible Light
Length of Day
Tomorrow will be .
, % of the Moon is Illuminated

Today's Extremes

State Highs State Lows

Community

WunderPhotos

Upload Photos

1,956,499 photos uploaded!

WunderBlog® & News

Nearby

Air Quality

  Air Quality AQ Index Pollutant
Not available.

Snow Depth

Station Depth Elevation

Earthquake Activity

City Distance Mag. Time & Date
Minimum magnitude displayed is 2.5.

Coastal Water Temperatures

Place Temperature

Stations

Nearby Weather Stations

Station Location Temp. Windchill Dew Point Humidity Wind Precip. Elev Updated Type
                   

Watches & Warnings

There are currently no watches in effect.